createdAt,value
2022-09-06T00:02:24.633Z,101602.00
2022-09-06T00:07:26.371Z,101598.50
2022-09-06T00:12:28.391Z,101595.88
2022-09-06T00:17:31.609Z,101607.19
2022-09-06T00:22:33.132Z,101618.53
2022-09-06T00:27:35.064Z,101626.38
2022-09-06T00:32:36.614Z,101622.91
2022-09-06T00:37:38.114Z,101615.94
2022-09-06T00:42:39.820Z,101616.78
2022-09-06T00:47:43.213Z,101615.91
2022-09-06T00:52:46.963Z,101621.13
2022-09-06T00:57:52.594Z,101616.78
2022-09-06T01:02:54.581Z,101611.56
2022-09-06T01:08:15.127Z,101608.09
2022-09-06T01:13:30.006Z,101594.16
2022-09-06T01:18:49.831Z,101589.78
2022-09-06T01:24:25.302Z,101595.03
2022-09-06T01:29:36.471Z,101592.41
2022-09-06T01:34:45.421Z,101597.66
2022-09-06T01:39:47.449Z,101602.00
2022-09-06T01:45:01.957Z,101603.75
2022-09-06T01:50:13.695Z,101615.06
2022-09-06T01:55:45.076Z,101609.81
2022-09-06T02:01:03.226Z,101626.38
2022-09-06T02:06:14.715Z,101622.03
2022-09-06T02:11:16.949Z,101664.56
2022-09-06T02:16:22.713Z,101640.28
2022-09-06T02:21:32.012Z,101632.47
2022-09-06T02:26:37.963Z,101642.03
2022-09-06T02:31:47.264Z,101641.19
2022-09-06T02:36:49.243Z,101646.38
2022-09-06T02:41:50.950Z,101644.63
2022-09-06T02:46:56.443Z,101649.81
2022-09-06T02:51:58.943Z,101638.41
2022-09-06T02:57:00.462Z,101632.41
2022-09-06T03:02:02.022Z,101616.47
2022-09-06T03:07:03.715Z,101613.91
2022-09-06T03:12:05.308Z,101589.56
2022-09-06T03:17:06.902Z,101590.28
2022-09-06T03:22:08.397Z,101583.41
2022-09-06T03:27:09.921Z,101569.44
2022-09-06T03:32:11.605Z,101560.75
2022-09-06T03:37:13.119Z,101564.06
2022-09-06T03:42:14.632Z,101562.44
2022-09-06T03:47:19.442Z,101543.47
2022-09-06T03:52:21.438Z,101553.94
2022-09-06T03:57:23.367Z,101562.59
2022-09-06T04:02:24.972Z,101579.16
2022-09-06T04:07:26.548Z,101582.59
2022-09-06T04:12:28.882Z,101579.09
2022-09-06T04:17:30.448Z,101593.84
2022-09-06T04:22:33.175Z,101592.91
2022-09-06T04:27:34.777Z,101602.41
2022-09-06T04:32:36.381Z,101600.66
2022-09-06T04:37:37.956Z,101592.84
2022-09-06T04:42:39.605Z,101584.91
2022-09-06T04:47:41.162Z,101584.97
2022-09-06T04:52:42.683Z,101600.63
2022-09-06T04:57:46.643Z,101601.41
2022-09-06T05:02:51.069Z,101607.69
2022-09-06T05:07:53.731Z,101619.53
2022-09-06T05:12:55.440Z,101684.78
2022-09-06T05:18:04.791Z,101708.09
2022-09-06T05:23:06.342Z,101726.34
2022-09-06T05:28:07.877Z,101752.97
2022-09-06T05:33:10.594Z,101765.94
2022-09-06T05:38:12.117Z,101734.16
2022-09-06T05:43:13.653Z,101758.34
2022-09-06T05:48:15.170Z,101802.75
2022-09-06T05:53:16.701Z,101794.09
2022-09-06T05:58:18.224Z,101783.22
2022-09-06T06:03:19.761Z,101769.31
2022-09-06T06:08:21.315Z,101797.38
2022-09-06T06:13:23.116Z,101779.09
2022-09-06T06:18:25.002Z,101748.81
2022-09-06T06:23:27.999Z,101733.19
2022-09-06T06:28:29.571Z,101744.59
2022-09-06T06:33:32.443Z,101749.88
2022-09-06T06:38:36.160Z,101743.84
2022-09-06T06:43:38.494Z,101720.44
2022-09-06T06:48:41.356Z,101676.06
2022-09-06T06:53:44.510Z,101646.25
2022-09-06T06:58:48.792Z,101616.31
2022-09-06T07:03:51.044Z,101598.66
2022-09-06T07:08:52.618Z,101586.47
2022-09-06T07:13:54.374Z,101572.34
2022-09-06T07:18:56.127Z,101568.09
2022-09-06T07:29:07.557Z,101561.25
2022-09-06T07:34:09.083Z,101543.97
2022-09-06T07:39:10.714Z,101531.13
2022-09-06T07:44:12.335Z,101509.13
2022-09-06T07:49:13.930Z,101519.47
2022-09-06T07:54:31.530Z,101505.22
2022-09-06T07:59:33.255Z,101505.19
2022-09-06T08:04:37.306Z,101513.00
2022-09-06T08:09:38.828Z,101516.84
2022-09-06T08:14:40.315Z,101505.34
2022-09-06T08:19:42.936Z,101496.72
2022-09-06T08:24:44.481Z,101496.16
2022-09-06T08:29:46.047Z,101482.63
2022-09-06T08:34:47.721Z,101479.56
2022-09-06T08:39:49.352Z,101470.84
2022-09-06T08:50:03.448Z,101469.44
2022-09-06T08:55:30.407Z,101468.94
2022-09-06T09:00:34.701Z,101461.34
2022-09-06T09:05:41.247Z,101457.88
2022-09-06T09:10:46.128Z,101459.13
2022-09-06T09:15:47.774Z,101461.06
2022-09-06T09:20:50.651Z,101452.00
2022-09-06T09:25:56.040Z,101455.56
2022-09-06T09:30:57.786Z,101448.91
2022-09-06T09:36:07.448Z,101444.16
2022-09-06T09:41:10.361Z,101442.31
2022-09-06T09:46:24.373Z,101426.38
2022-09-06T09:51:27.664Z,101436.34
2022-09-06T09:57:01.550Z,101434.47
2022-09-06T10:02:35.711Z,101427.88
2022-09-06T10:07:45.227Z,101427.09
2022-09-06T10:12:46.842Z,101420.31
2022-09-06T10:17:51.944Z,101413.53
2022-09-06T10:23:05.671Z,101422.72
2022-09-06T10:28:28.591Z,101399.56
2022-09-06T10:33:56.655Z,101386.44
2022-09-06T10:39:06.138Z,101392.78
2022-09-06T10:44:45.671Z,101394.25
2022-09-06T10:49:57.849Z,101399.13
2022-09-06T10:55:04.902Z,101392.47
2022-09-06T11:00:42.285Z,101387.34
2022-09-06T11:05:52.979Z,101395.50
2022-09-06T11:11:28.476Z,101394.28
2022-09-06T11:16:39.971Z,101393.47
2022-09-06T11:22:08.167Z,101388.75
2022-09-06T11:27:21.862Z,101393.31
2022-09-06T11:32:48.939Z,101387.25
2022-09-06T11:38:01.157Z,101396.06
2022-09-06T11:43:03.261Z,101408.25
2022-09-06T11:48:23.136Z,101395.19
2022-09-06T11:53:29.857Z,101401.81
2022-09-06T11:58:47.684Z,101406.53
2022-09-06T12:04:15.918Z,101401.53
2022-09-06T12:09:40.813Z,101407.53
2022-09-06T12:14:46.723Z,101406.75
2022-09-06T12:19:48.256Z,101403.44
2022-09-06T12:24:54.047Z,101392.81
2022-09-06T12:30:01.785Z,101400.38
2022-09-06T12:40:35.291Z,101394.28
2022-09-06T12:45:42.863Z,101387.44
2022-09-06T12:50:44.483Z,101389.28
2022-09-06T12:55:46.001Z,101378.13
2022-09-06T13:00:52.242Z,101370.28
2022-09-06T13:05:56.008Z,101366.72
2022-09-06T13:10:58.040Z,101356.13
2022-09-06T13:15:59.688Z,101339.50
2022-09-06T13:21:05.711Z,101343.66
2022-09-06T13:26:07.229Z,101337.53
2022-09-06T13:31:17.510Z,101323.16
2022-09-06T13:36:26.736Z,101323.13
2022-09-06T13:41:28.183Z,101332.59
2022-09-06T13:46:30.299Z,101322.75
2022-09-06T13:51:32.145Z,101324.94
2022-09-06T13:56:33.757Z,101324.88
2022-09-06T14:01:35.456Z,101320.22
2022-09-06T14:06:37.197Z,101311.28
2022-09-06T14:11:39.255Z,101307.03
2022-09-06T14:16:41.003Z,101308.06
2022-09-06T14:21:43.316Z,101312.34
2022-09-06T14:26:44.857Z,101308.81
2022-09-06T14:31:48.335Z,101299.91
2022-09-06T14:36:49.939Z,101305.84
2022-09-06T14:41:52.108Z,101282.97
2022-09-06T14:46:54.577Z,101290.84
2022-09-06T14:52:13.656Z,101278.38
2022-09-06T14:57:15.328Z,101289.50
2022-09-06T15:02:16.924Z,101284.09
2022-09-06T15:07:18.654Z,101282.75
2022-09-06T15:12:20.681Z,101286.75
2022-09-06T15:17:22.216Z,101289.94
2022-09-06T15:22:23.731Z,101276.13
2022-09-06T15:34:26.160Z,101262.41
2022-09-06T15:39:27.908Z,101261.34
2022-09-06T15:44:29.548Z,101267.72
2022-09-06T15:49:32.316Z,101268.44
2022-09-06T15:55:17.759Z,101264.63
2022-09-06T16:00:21.983Z,101255.44
2022-09-06T16:10:46.704Z,101242.78
2022-09-06T16:16:00.252Z,101240.53
2022-09-06T16:21:10.378Z,101231.78
2022-09-06T16:26:41.009Z,101237.91
2022-09-06T16:31:43.000Z,101236.69
2022-09-06T16:36:46.536Z,101219.97
2022-09-06T16:42:04.267Z,101226.69
2022-09-06T16:47:38.551Z,101217.97
2022-09-06T16:53:46.412Z,101214.00
2022-09-06T16:59:08.154Z,101217.41
2022-09-06T17:04:38.327Z,101223.63
2022-09-06T17:10:33.474Z,101235.84
2022-09-06T17:15:55.158Z,101234.75
2022-09-06T17:21:07.427Z,101237.38
2022-09-06T17:26:15.555Z,101230.94
2022-09-06T17:31:22.213Z,101226.47
2022-09-06T17:36:30.512Z,101225.31
2022-09-06T17:41:38.933Z,101231.34
2022-09-06T17:46:57.149Z,101229.97
2022-09-06T17:52:03.340Z,101234.34
2022-09-06T17:57:04.859Z,101250.72
2022-09-06T18:02:09.995Z,101256.56
2022-09-06T18:07:11.762Z,101254.38
2022-09-06T18:12:13.888Z,101258.69
2022-09-06T18:17:15.635Z,101255.84
2022-09-06T18:22:17.144Z,101256.72
2022-09-06T18:27:18.722Z,101252.84
2022-09-06T18:32:20.227Z,101256.31
2022-09-06T18:37:22.511Z,101251.13
2022-09-06T18:42:24.158Z,101251.47
2022-09-06T18:47:25.736Z,101252.38
2022-09-06T18:52:27.838Z,101259.50
2022-09-06T18:57:30.647Z,101263.22
2022-09-06T19:02:32.336Z,101262.47
2022-09-06T19:07:33.896Z,101266.63
2022-09-06T19:12:35.495Z,101262.94
2022-09-06T19:17:37.009Z,101256.41
2022-09-06T19:22:38.508Z,101244.56
2022-09-06T19:27:40.050Z,101222.88
2022-09-06T19:32:41.631Z,101209.72
2022-09-06T19:37:43.513Z,101208.66
2022-09-06T19:42:45.238Z,101201.41
2022-09-06T19:47:46.872Z,101189.09
2022-09-06T19:52:49.415Z,101186.00
2022-09-06T19:57:50.967Z,101162.63
2022-09-06T20:03:21.546Z,101158.81
2022-09-06T20:08:23.333Z,101167.00
2022-09-06T20:13:26.512Z,101160.41
2022-09-06T20:18:28.174Z,101162.34
2022-09-06T20:23:30.732Z,101171.91
2022-09-06T20:28:33.667Z,101192.25
2022-09-06T20:33:35.647Z,101174.66
2022-09-06T20:38:42.050Z,101164.31
2022-09-06T20:43:44.193Z,101177.28
2022-09-06T20:48:46.427Z,101155.59
2022-09-06T20:54:00.093Z,101150.28
2022-09-06T20:59:03.680Z,101154.78
2022-09-06T21:04:13.518Z,101159.28
2022-09-06T21:09:15.467Z,101163.72
2022-09-06T21:14:18.199Z,101169.13
2022-09-06T21:19:50.204Z,101180.06
2022-09-06T21:24:51.730Z,101177.31
2022-09-06T21:29:53.284Z,101161.97
2022-09-06T21:34:54.783Z,101170.72
2022-09-06T21:39:56.412Z,101163.06
2022-09-06T21:44:57.987Z,101157.78
2022-09-06T21:50:27.024Z,101167.44
2022-09-06T21:55:32.369Z,101156.88
2022-09-06T22:00:34.747Z,101145.41
2022-09-06T22:05:36.384Z,101128.69
2022-09-06T22:10:37.886Z,101110.13
2022-09-06T22:15:39.776Z,101074.16
2022-09-06T22:20:41.367Z,101082.06
2022-09-06T22:25:42.891Z,101092.56
2022-09-06T22:30:45.131Z,101114.72
2022-09-06T22:35:46.699Z,101105.22
2022-09-06T22:40:48.339Z,101094.06
2022-09-06T22:45:52.169Z,101079.91
2022-09-06T22:50:53.858Z,101083.59
2022-09-06T22:55:57.114Z,101105.41
2022-09-06T23:01:07.607Z,101092.97
2022-09-06T23:06:09.818Z,101087.88
2022-09-06T23:11:14.125Z,101085.13
2022-09-06T23:16:18.661Z,101087.97
2022-09-06T23:21:24.258Z,101087.19
2022-09-06T23:26:29.549Z,101088.31
2022-09-06T23:31:32.547Z,101094.59
2022-09-06T23:36:34.255Z,101111.38
2022-09-06T23:41:35.852Z,101210.38
2022-09-06T23:46:37.620Z,101297.03
2022-09-06T23:51:39.203Z,101405.19
2022-09-06T23:56:40.707Z,101489.59
